createdAt,value
2023-02-13T00:00:48.915Z,100046.75
2023-02-13T00:02:52.532Z,100043.38
2023-02-13T00:04:55.609Z,100043.38
2023-02-13T00:06:58.756Z,100036.47
2023-02-13T00:09:02.736Z,100036.47
2023-02-13T00:11:07.611Z,100038.28
2023-02-13T00:13:10.671Z,100028.91
2023-02-13T00:15:13.734Z,100028.91
2023-02-13T00:17:16.796Z,100030.66
2023-02-13T00:19:19.884Z,100032.41
2023-02-13T00:21:22.973Z,100030.69
2023-02-13T00:23:26.233Z,100023.84
2023-02-13T00:25:29.643Z,100025.59
2023-02-13T00:27:34.246Z,100026.44
2023-02-13T00:29:38.185Z,100027.41
2023-02-13T00:31:41.395Z,100024.88
2023-02-13T00:33:44.938Z,100025.72
2023-02-13T00:35:48.028Z,100019.72
2023-02-13T00:37:51.063Z,100021.41
2023-02-13T00:39:54.519Z,100015.41
2023-02-13T00:41:57.609Z,100022.25
2023-02-13T00:44:02.063Z,100026.50
2023-02-13T00:46:07.411Z,100025.56
2023-02-13T00:48:10.611Z,100030.69
2023-02-13T00:50:13.731Z,100029.78
2023-02-13T00:52:16.903Z,100029.78
2023-02-13T00:54:27.617Z,100034.06
2023-02-13T00:56:30.681Z,100026.28
2023-02-13T00:58:34.135Z,100024.53
2023-02-13T01:00:38.693Z,100023.66
2023-02-13T01:02:41.889Z,100027.97
2023-02-13T01:04:44.982Z,100028.81
2023-02-13T01:06:48.035Z,100029.69
2023-02-13T01:08:51.124Z,100024.50
2023-02-13T01:10:54.253Z,100024.50
2023-02-13T01:12:57.603Z,100026.16
2023-02-13T01:15:00.707Z,100026.19
2023-02-13T01:17:05.275Z,100031.41
2023-02-13T01:19:08.321Z,100029.66
2023-02-13T01:21:23.278Z,100028.75
2023-02-13T01:23:31.482Z,100032.22
2023-02-13T01:25:34.699Z,100028.75
2023-02-13T01:27:38.388Z,100030.53
2023-02-13T01:29:41.476Z,100026.34
2023-02-13T01:31:44.665Z,100027.22
2023-02-13T01:33:49.094Z,100028.97
2023-02-13T01:35:52.633Z,100029.81
2023-02-13T01:37:55.743Z,100029.88
2023-02-13T01:40:00.157Z,100029.03
2023-02-13T01:42:03.301Z,100029.06
2023-02-13T01:44:40.123Z,100020.44
2023-02-13T01:46:44.311Z,100023.91
2023-02-13T01:48:49.550Z,100022.19
2023-02-13T01:50:54.248Z,100022.19
2023-02-13T01:53:03.337Z,100021.38
2023-02-13T01:55:07.821Z,100029.97
2023-02-13T01:57:15.160Z,100017.97
2023-02-13T01:59:20.158Z,100019.69
2023-02-13T02:01:23.722Z,100021.44
2023-02-13T02:03:29.432Z,100023.16
2023-02-13T02:05:38.642Z,100021.50
2023-02-13T02:07:42.847Z,100024.09
2023-02-13T02:09:46.418Z,100014.63
2023-02-13T02:11:53.771Z,100012.94
2023-02-13T02:13:57.447Z,100014.63
2023-02-13T02:16:08.694Z,100017.22
2023-02-13T02:18:16.409Z,100015.53
2023-02-13T02:20:27.790Z,100018.97
2023-02-13T02:23:00.589Z,100006.97
2023-02-13T02:25:25.775Z,100010.47
2023-02-13T02:27:47.127Z,100001.88
2023-02-13T02:30:21.994Z,99996.78
2023-02-13T02:32:50.330Z,100001.13
2023-02-13T02:34:58.459Z,99995.16
2023-02-13T02:37:11.428Z,99995.19
2023-02-13T02:39:23.685Z,99990.06
2023-02-13T02:41:43.139Z,99991.81
2023-02-13T02:43:55.550Z,99990.94
2023-02-13T02:46:03.911Z,99988.38
2023-02-13T02:48:28.999Z,99992.69
2023-02-13T02:50:36.285Z,99993.56
2023-02-13T02:52:49.428Z,99985.00
2023-02-13T02:55:07.748Z,99987.56
2023-02-13T02:57:22.954Z,99983.31
2023-02-13T02:59:50.567Z,99991.09
2023-02-13T03:02:12.497Z,99992.00
2023-02-13T03:04:42.432Z,99988.56
2023-02-13T03:06:47.847Z,99983.41
2023-02-13T03:09:11.955Z,99983.44
2023-02-13T03:11:32.933Z,99982.59
2023-02-13T03:13:42.358Z,99991.19
2023-02-13T03:16:00.365Z,99989.50
2023-02-13T03:18:29.567Z,99997.25
2023-02-13T03:20:59.038Z,99990.38
2023-02-13T03:23:10.042Z,100002.41
2023-02-13T03:25:19.128Z,100005.00
2023-02-13T03:27:58.344Z,100006.72
2023-02-13T03:30:11.753Z,100011.91
2023-02-13T03:32:22.483Z,100017.88
2023-02-13T03:34:46.648Z,100019.63
2023-02-13T03:37:11.422Z,100023.06
2023-02-13T03:39:19.552Z,100021.34
2023-02-13T03:41:24.890Z,100023.09
2023-02-13T03:43:28.567Z,100021.34
2023-02-13T03:45:51.444Z,100029.94
2023-02-13T03:47:56.625Z,100027.38
2023-02-13T03:50:08.024Z,100028.22
2023-02-13T03:52:16.747Z,100027.38
2023-02-13T03:54:41.794Z,100023.94
2023-02-13T03:57:02.891Z,100032.56
2023-02-13T03:59:17.628Z,100029.97
2023-02-13T04:01:24.367Z,100041.09
2023-02-13T04:03:29.739Z,100041.97
2023-02-13T04:05:34.504Z,100041.97
2023-02-13T04:07:39.630Z,100047.13
2023-02-13T04:09:44.196Z,100047.13
2023-02-13T04:11:53.830Z,100046.31
2023-02-13T04:13:59.046Z,100051.47
2023-02-13T04:16:07.698Z,100047.16
2023-02-13T04:18:13.675Z,100054.91
2023-02-13T04:20:16.719Z,100050.63
2023-02-13T04:22:20.422Z,100053.22
2023-02-13T04:24:24.764Z,100054.09
2023-02-13T04:26:32.606Z,100048.94
2023-02-13T04:28:35.838Z,100055.81
2023-02-13T04:30:39.475Z,100048.13
2023-02-13T04:32:42.586Z,100057.56
2023-02-13T04:34:45.679Z,100052.44
2023-02-13T04:36:48.879Z,100054.13
2023-02-13T04:38:52.030Z,100052.44
2023-02-13T04:40:56.787Z,100050.72
2023-02-13T04:43:00.020Z,100051.56
2023-02-13T04:45:03.181Z,100040.44
2023-02-13T04:47:06.256Z,100046.44
2023-02-13T04:49:09.414Z,100040.44
2023-02-13T04:51:12.476Z,100051.59
2023-02-13T04:53:15.507Z,100045.59
2023-02-13T04:55:18.594Z,100052.47
2023-02-13T04:57:22.974Z,100046.44
2023-02-13T04:59:26.087Z,100044.78
2023-02-13T05:01:29.243Z,100049.06
2023-02-13T05:03:32.372Z,100045.66
2023-02-13T05:05:36.132Z,100045.66
2023-02-13T05:07:39.296Z,100043.09
2023-02-13T05:09:42.363Z,100046.53
2023-02-13T05:11:45.414Z,100047.41
2023-02-13T05:13:49.884Z,100054.22
2023-02-13T05:15:53.288Z,100055.97
2023-02-13T05:17:56.405Z,100049.97
2023-02-13T05:19:59.929Z,100056.84
2023-02-13T05:22:20.429Z,100055.13
2023-02-13T05:24:23.564Z,100055.09
2023-02-13T05:26:26.592Z,100055.13
2023-02-13T05:28:47.322Z,100051.72
2023-02-13T05:30:51.928Z,100051.72
2023-02-13T05:32:55.694Z,100055.13
2023-02-13T05:34:58.768Z,100056.84
2023-02-13T05:37:01.834Z,100050.00
2023-02-13T05:39:05.375Z,100052.56
2023-02-13T05:41:08.556Z,100048.28
2023-02-13T05:43:11.732Z,100045.69
2023-02-13T05:45:16.137Z,100053.41
2023-02-13T05:47:20.536Z,100052.56
2023-02-13T05:49:23.975Z,100055.16
2023-02-13T05:51:27.100Z,100056.00
2023-02-13T05:53:30.753Z,100054.31
2023-02-13T05:55:33.986Z,100053.41
2023-02-13T05:57:37.043Z,100058.56
2023-02-13T05:59:40.197Z,100052.59
2023-02-13T06:01:43.408Z,100055.16
2023-02-13T06:03:48.213Z,100044.88
2023-02-13T06:05:51.435Z,100049.19
2023-02-13T06:07:54.488Z,100044.03
2023-02-13T06:09:59.537Z,100046.63
2023-02-13T06:12:02.561Z,100046.63
2023-02-13T06:14:05.639Z,100049.19
2023-02-13T06:16:09.190Z,100050.88
2023-02-13T06:18:12.655Z,100048.31
2023-02-13T06:20:17.259Z,100050.03
2023-02-13T06:22:20.340Z,100052.63
2023-02-13T06:24:23.406Z,100053.47
2023-02-13T06:26:26.440Z,100051.78
2023-02-13T06:28:29.624Z,100053.47
2023-02-13T06:30:32.910Z,100051.78
2023-02-13T06:32:35.999Z,100058.59
2023-02-13T06:34:39.078Z,100056.91
2023-02-13T06:36:43.495Z,100056.91
2023-02-13T06:38:46.620Z,100062.03
2023-02-13T06:40:50.607Z,100063.75
2023-02-13T06:42:53.685Z,100064.63
2023-02-13T06:44:56.774Z,100056.91
2023-02-13T06:47:00.037Z,100064.63
2023-02-13T06:49:03.255Z,100074.00
2023-02-13T06:51:06.914Z,100069.75
2023-02-13T06:53:11.301Z,100069.75
2023-02-13T06:55:14.474Z,100073.16
2023-02-13T06:57:17.681Z,100077.44
2023-02-13T06:59:20.754Z,100079.94
2023-02-13T07:01:23.907Z,100082.50
2023-02-13T07:03:27.089Z,100079.06
2023-02-13T07:05:30.191Z,100081.59
2023-02-13T07:07:34.392Z,100084.97
2023-02-13T07:09:39.223Z,100089.22
2023-02-13T07:11:42.228Z,100092.56
2023-02-13T07:13:45.296Z,100091.69
2023-02-13T07:15:48.427Z,100092.50
2023-02-13T07:17:56.920Z,100095.00
2023-02-13T07:20:00.122Z,100095.78
2023-02-13T07:22:03.215Z,100094.78
2023-02-13T07:24:08.156Z,100099.78
2023-02-13T07:26:12.816Z,100102.25
2023-02-13T07:28:15.966Z,100100.41
2023-02-13T07:30:19.442Z,100098.56
2023-02-13T07:32:22.530Z,100103.53
2023-02-13T07:34:25.641Z,100109.41
2023-02-13T07:36:28.952Z,100116.16
2023-02-13T07:38:32.143Z,100117.78
2023-02-13T07:40:35.228Z,100110.72
2023-02-13T07:42:39.828Z,100119.09
2023-02-13T07:44:42.916Z,100116.38
2023-02-13T07:46:46.123Z,100119.63
2023-02-13T07:48:49.582Z,100125.44
2023-02-13T07:50:52.650Z,100112.25
2023-02-13T07:52:56.195Z,100118.94
2023-02-13T07:54:59.282Z,100117.00
2023-02-13T07:57:02.385Z,100122.88
2023-02-13T07:59:07.905Z,100115.84
2023-02-13T08:01:12.719Z,100120.91
2023-02-13T08:03:15.936Z,100119.13
2023-02-13T08:05:19.432Z,100127.59
2023-02-13T08:07:22.572Z,100134.41
2023-02-13T08:09:43.342Z,100126.66
2023-02-13T08:11:55.155Z,100130.88
2023-02-13T08:13:58.295Z,100134.16
2023-02-13T08:16:03.994Z,100134.03
2023-02-13T08:18:07.375Z,100127.94
2023-02-13T08:20:11.322Z,100124.31
2023-02-13T08:22:14.495Z,100125.06
2023-02-13T08:24:20.597Z,100113.72
2023-02-13T08:26:23.705Z,100119.56
2023-02-13T08:28:26.857Z,100124.53
2023-02-13T08:30:30.208Z,100118.47
2023-02-13T08:32:44.826Z,100121.63
2023-02-13T08:34:51.784Z,100122.94
2023-02-13T08:36:54.917Z,100122.84
2023-02-13T08:38:58.092Z,100127.19
2023-02-13T08:41:01.222Z,100131.38
2023-02-13T08:43:05.828Z,100128.59
2023-02-13T08:45:11.735Z,100131.72
2023-02-13T08:47:15.134Z,100130.78
2023-02-13T08:49:19.795Z,100133.28
2023-02-13T08:51:23.049Z,100133.28
2023-02-13T08:53:26.238Z,100126.94
2023-02-13T08:55:31.497Z,100131.19
2023-02-13T08:57:34.679Z,100134.50
2023-02-13T08:59:37.848Z,100126.66
2023-02-13T09:01:41.088Z,100131.59
2023-02-13T09:03:44.204Z,100124.56
2023-02-13T09:05:48.834Z,100126.94
2023-02-13T09:07:52.167Z,100129.56
2023-02-13T09:09:55.345Z,100127.59
2023-02-13T09:11:58.464Z,100132.50
2023-02-13T09:14:01.582Z,100135.72
2023-02-13T09:16:05.935Z,100131.53
2023-02-13T09:18:09.206Z,100132.38
2023-02-13T09:20:14.017Z,100127.16
2023-02-13T09:22:18.525Z,100127.13
2023-02-13T09:24:21.786Z,100142.16
2023-02-13T09:26:24.823Z,100141.88
2023-02-13T09:28:28.250Z,100142.31
2023-02-13T09:30:32.279Z,100136.22
2023-02-13T09:32:35.551Z,100136.97
2023-02-13T09:34:38.764Z,100148.81
2023-02-13T09:36:41.893Z,100145.16
2023-02-13T09:38:46.493Z,100145.78
2023-02-13T09:40:51.589Z,100143.84
2023-02-13T09:42:55.214Z,100145.25
2023-02-13T09:45:00.977Z,100144.28
2023-02-13T09:47:06.994Z,100144.19
2023-02-13T09:49:13.788Z,100141.38
2023-02-13T09:51:18.774Z,100151.28
2023-02-13T09:53:24.114Z,100146.34
2023-02-13T09:55:31.470Z,100158.81
2023-02-13T09:57:35.941Z,100142.69
2023-02-13T09:59:47.440Z,100145.72
2023-02-13T10:01:51.895Z,100144.44
2023-02-13T10:04:17.004Z,100147.47
2023-02-13T10:06:25.566Z,100145.66
2023-02-13T10:08:36.238Z,100146.97
2023-02-13T10:10:49.688Z,100149.47
2023-02-13T10:13:14.680Z,100147.31
2023-02-13T10:15:23.351Z,100149.44
2023-02-13T10:17:31.785Z,100141.19
2023-02-13T10:19:37.748Z,100145.28
2023-02-13T10:21:43.894Z,100147.69
2023-02-13T10:23:49.464Z,100141.56
2023-02-13T10:25:59.471Z,100139.84
2023-02-13T10:28:08.647Z,100138.13
2023-02-13T10:30:20.199Z,100130.06
2023-02-13T10:32:28.419Z,100130.41
2023-02-13T10:34:35.533Z,100124.13
2023-02-13T10:36:42.267Z,100121.34
2023-02-13T10:38:47.089Z,100121.06
2023-02-13T10:41:06.513Z,100121.56
2023-02-13T10:43:10.669Z,100116.19
2023-02-13T10:45:34.364Z,100109.63
2023-02-13T10:47:55.400Z,100112.84
2023-02-13T10:50:08.029Z,100120.50
2023-02-13T10:52:18.453Z,100109.81
2023-02-13T10:54:32.728Z,100111.00
2023-02-13T10:56:40.046Z,100106.16
2023-02-13T10:58:52.478Z,100103.22
2023-02-13T11:00:57.907Z,100104.50
2023-02-13T11:03:01.321Z,100102.53
2023-02-13T11:05:15.632Z,100094.03
2023-02-13T11:07:21.160Z,100090.72
2023-02-13T11:09:25.255Z,100083.66
2023-02-13T11:11:33.708Z,100083.47
2023-02-13T11:13:38.206Z,100082.63
2023-02-13T11:15:41.395Z,100075.09
2023-02-13T11:17:46.637Z,100076.78
2023-02-13T11:19:51.968Z,100074.28
2023-02-13T11:21:57.138Z,100071.13
2023-02-13T11:24:00.247Z,100071.59
2023-02-13T11:26:07.665Z,100069.13
2023-02-13T11:28:16.423Z,100074.34
2023-02-13T11:30:33.008Z,100070.13
2023-02-13T11:32:37.513Z,100070.69
2023-02-13T11:34:41.032Z,100072.16
2023-02-13T11:36:44.228Z,100077.25
2023-02-13T11:38:47.710Z,100079.84
2023-02-13T11:40:53.382Z,100078.03
2023-02-13T11:42:56.543Z,100074.38
2023-02-13T11:45:01.381Z,100076.66
2023-02-13T11:47:04.775Z,100077.53
2023-02-13T11:49:17.311Z,100075.06
2023-02-13T11:51:20.458Z,100073.09
2023-02-13T11:53:25.592Z,100067.03
2023-02-13T11:55:32.392Z,100070.41
2023-02-13T11:57:37.383Z,100068.56
2023-02-13T11:59:43.119Z,100071.94
2023-02-13T12:01:49.374Z,100072.56
2023-02-13T12:04:02.682Z,100074.41
2023-02-13T12:06:14.094Z,100067.28
2023-02-13T12:08:17.346Z,100065.56
2023-02-13T12:10:23.591Z,100068.06
2023-02-13T12:12:31.582Z,100066.19
2023-02-13T12:14:39.300Z,100069.38
2023-02-13T12:16:44.912Z,100065.13
2023-02-13T12:18:51.552Z,100057.06
2023-02-13T12:20:59.268Z,100070.94
2023-02-13T12:23:07.023Z,100057.16
2023-02-13T12:25:24.851Z,100057.06
2023-02-13T12:27:34.087Z,100059.69
2023-02-13T12:29:56.961Z,100053.75
2023-02-13T12:32:06.280Z,100050.13
2023-02-13T12:34:30.651Z,100047.31
2023-02-13T12:36:37.652Z,100048.25
2023-02-13T12:38:50.628Z,100046.28
2023-02-13T12:41:11.471Z,100046.84
2023-02-13T12:43:30.639Z,100051.94
2023-02-13T12:45:38.574Z,100037.97
2023-02-13T12:47:49.584Z,100041.56
2023-02-13T12:50:22.194Z,100035.47
2023-02-13T12:52:35.381Z,100034.38
2023-02-13T12:54:48.592Z,100035.00
2023-02-13T12:57:00.981Z,100031.41
2023-02-13T12:59:10.408Z,100031.34
2023-02-13T13:01:21.294Z,100033.03
2023-02-13T13:03:35.060Z,100028.75
2023-02-13T13:06:11.837Z,100025.25
2023-02-13T13:08:25.862Z,100023.38
2023-02-13T13:10:41.452Z,100031.84
2023-02-13T13:12:52.572Z,100020.31
2023-02-13T13:15:00.488Z,100021.81
2023-02-13T13:17:10.363Z,100020.09
2023-02-13T13:19:21.146Z,100024.50
2023-02-13T13:21:31.878Z,100015.06
2023-02-13T13:23:39.346Z,100017.13
2023-02-13T13:25:50.732Z,100025.91
2023-02-13T13:27:56.655Z,100015.44
2023-02-13T13:30:01.125Z,100019.81
2023-02-13T13:32:07.492Z,100006.94
2023-02-13T13:34:16.716Z,100009.63
2023-02-13T13:36:25.169Z,100001.00
2023-02-13T13:38:39.902Z,100007.94
2023-02-13T13:40:47.651Z,99998.09
2023-02-13T13:42:54.690Z,100005.69
2023-02-13T13:45:10.938Z,100007.94
2023-02-13T13:47:24.744Z,100009.47
2023-02-13T13:49:41.637Z,100009.34
2023-02-13T13:51:44.778Z,100004.09
2023-02-13T13:54:24.961Z,100004.09
2023-02-13T13:57:12.433Z,100003.00
2023-02-13T13:59:18.293Z,99989.91
2023-02-13T14:01:31.061Z,99999.47
2023-02-13T14:03:37.028Z,99994.09
2023-02-13T14:05:59.272Z,99987.75
2023-02-13T14:08:04.159Z,99993.06
2023-02-13T14:10:47.424Z,99993.81
2023-02-13T14:13:02.535Z,99988.38
2023-02-13T14:15:06.114Z,99989.06
2023-02-13T14:17:14.804Z,99993.38
2023-02-13T14:19:30.280Z,99985.50
2023-02-13T14:21:33.452Z,99990.69
2023-02-13T14:23:53.133Z,99995.00
2023-02-13T14:26:20.508Z,100002.78
2023-02-13T14:28:26.309Z,99990.59
2023-02-13T14:30:34.619Z,99987.44
2023-02-13T14:32:40.778Z,99990.31
2023-02-13T14:34:45.674Z,99990.38
2023-02-13T14:37:07.476Z,99983.31
2023-02-13T14:39:23.062Z,99988.72
2023-02-13T14:41:47.586Z,99991.31
2023-02-13T14:43:54.035Z,99992.22
2023-02-13T14:45:58.458Z,99990.44
2023-02-13T14:48:07.536Z,99993.22
2023-02-13T14:50:17.449Z,99996.78
2023-02-13T14:52:26.340Z,99996.13
2023-02-13T14:54:34.629Z,99994.78
2023-02-13T14:56:39.209Z,99995.22
2023-02-13T14:58:48.698Z,99991.97
2023-02-13T15:00:56.230Z,99991.31
2023-02-13T15:03:03.730Z,99989.91
2023-02-13T15:05:11.619Z,99986.75
2023-02-13T15:07:17.940Z,99982.72
2023-02-13T15:09:27.375Z,99983.78
2023-02-13T15:11:38.925Z,99983.00
2023-02-13T15:13:42.727Z,99984.09
2023-02-13T15:15:46.842Z,99983.53
2023-02-13T15:17:51.862Z,99979.28
2023-02-13T15:19:57.893Z,99975.88
2023-02-13T15:22:03.245Z,99980.41
2023-02-13T15:24:06.680Z,99978.19
2023-02-13T15:26:10.156Z,99973.28
2023-02-13T15:28:20.875Z,99969.63
2023-02-13T15:30:25.802Z,99975.72
2023-02-13T15:32:34.356Z,99971.47
2023-02-13T15:34:40.852Z,99977.00
2023-02-13T15:36:43.899Z,99968.63
2023-02-13T15:38:47.116Z,99960.09
2023-02-13T15:40:52.034Z,99968.25
2023-02-13T15:42:56.100Z,99965.84
2023-02-13T15:44:59.561Z,99965.31
2023-02-13T15:47:06.408Z,99970.13
2023-02-13T15:49:14.355Z,99958.44
2023-02-13T15:51:21.750Z,99960.59
2023-02-13T15:53:24.950Z,99960.78
2023-02-13T15:55:29.646Z,99959.44
2023-02-13T15:57:33.083Z,99961.41
2023-02-13T15:59:38.475Z,99961.72
2023-02-13T16:01:44.334Z,99960.38
2023-02-13T16:03:49.629Z,99965.28
2023-02-13T16:05:52.841Z,99956.97
2023-02-13T16:07:59.279Z,99953.81
2023-02-13T16:10:18.769Z,99948.94
2023-02-13T16:12:24.166Z,99949.22
2023-02-13T16:14:28.232Z,99953.03
2023-02-13T16:16:33.223Z,99950.81
2023-02-13T16:18:36.545Z,99951.03
2023-02-13T16:20:39.748Z,99943.53
2023-02-13T16:22:46.392Z,99940.66
2023-02-13T16:24:54.213Z,99944.00
2023-02-13T16:26:57.603Z,99941.00
2023-02-13T16:29:00.804Z,99945.75
2023-02-13T16:31:05.019Z,99941.69
2023-02-13T16:33:29.401Z,99941.19
2023-02-13T16:35:33.661Z,99936.38
2023-02-13T16:37:36.843Z,99938.47
2023-02-13T16:39:39.915Z,99939.44
2023-02-13T16:41:44.492Z,99946.47
2023-02-13T16:43:48.437Z,99951.06
2023-02-13T16:45:51.879Z,99958.28
2023-02-13T16:48:02.454Z,99947.28
2023-02-13T16:50:06.111Z,99947.38
2023-02-13T16:52:12.660Z,99944.91
2023-02-13T16:54:34.692Z,99950.28
2023-02-13T16:56:39.418Z,99944.28
2023-02-13T16:58:43.951Z,99952.22
2023-02-13T17:00:51.248Z,99952.47
2023-02-13T17:02:54.460Z,99959.53
2023-02-13T17:05:00.015Z,99955.28
2023-02-13T17:07:03.043Z,99955.41
2023-02-13T17:09:06.114Z,99953.75
2023-02-13T17:11:09.821Z,99962.31
2023-02-13T17:13:16.639Z,99964.16
2023-02-13T17:15:22.782Z,99967.72
2023-02-13T17:17:28.043Z,99963.44
2023-02-13T17:19:31.117Z,99971.38
2023-02-13T17:21:34.417Z,99968.06
2023-02-13T17:23:37.655Z,99969.84
2023-02-13T17:25:41.278Z,99966.50
2023-02-13T17:27:44.507Z,99969.22
2023-02-13T17:29:47.774Z,99969.34
2023-02-13T17:31:55.423Z,99976.31
2023-02-13T17:33:58.544Z,99971.31
2023-02-13T17:36:01.595Z,99974.03
2023-02-13T17:38:06.307Z,99974.09
2023-02-13T17:40:10.654Z,99973.38
2023-02-13T17:42:20.803Z,99982.16
2023-02-13T17:44:23.997Z,99982.28
2023-02-13T17:46:27.407Z,99990.13
2023-02-13T17:48:31.853Z,99988.63
2023-02-13T17:50:36.116Z,99990.72
2023-02-13T17:52:40.010Z,99988.50
2023-02-13T17:54:43.990Z,99994.63
2023-02-13T17:56:48.120Z,99993.06
2023-02-13T17:58:51.557Z,99993.25
2023-02-13T18:00:54.933Z,99993.38
2023-02-13T18:02:59.679Z,99985.66
2023-02-13T18:05:04.333Z,99992.63
2023-02-13T18:07:07.888Z,99991.75
2023-02-13T18:09:10.998Z,99991.03
2023-02-13T18:11:14.055Z,99989.41
2023-02-13T18:13:17.248Z,99988.53
2023-02-13T18:15:21.053Z,100001.50
2023-02-13T18:17:24.461Z,100005.03
2023-02-13T18:19:28.436Z,100005.94
2023-02-13T18:21:33.126Z,100014.56
2023-02-13T18:23:36.442Z,100019.81
2023-02-13T18:25:39.544Z,100018.19
2023-02-13T18:27:42.742Z,100014.75
2023-02-13T18:29:46.098Z,100023.41
2023-02-13T18:31:51.789Z,100016.66
2023-02-13T18:33:54.978Z,100024.47
2023-02-13T18:36:02.350Z,100016.00
2023-02-13T18:38:06.857Z,100023.88
2023-02-13T18:40:10.774Z,100024.78
2023-02-13T18:42:14.121Z,100018.88
2023-02-13T18:44:27.156Z,100025.09
2023-02-13T18:46:31.706Z,100024.28
2023-02-13T18:48:34.823Z,100024.34
2023-02-13T18:50:40.799Z,100024.53
2023-02-13T18:52:43.946Z,100013.47
2023-02-13T18:54:48.516Z,100021.31
2023-02-13T18:56:51.770Z,100015.44
2023-02-13T18:58:54.944Z,100019.88
2023-02-13T19:00:58.547Z,100013.09
2023-02-13T19:03:01.884Z,100013.97
2023-02-13T19:05:06.443Z,100014.00
2023-02-13T19:07:10.878Z,100021.75
2023-02-13T19:09:13.990Z,100021.06
2023-02-13T19:11:23.276Z,100017.69
2023-02-13T19:13:26.404Z,100025.50
2023-02-13T19:15:29.578Z,100024.69
2023-02-13T19:17:32.786Z,100023.06
2023-02-13T19:19:35.984Z,100024.13
2023-02-13T19:21:40.557Z,100021.59
2023-02-13T19:23:46.546Z,100017.34
2023-02-13T19:25:49.625Z,100018.28
2023-02-13T19:27:54.097Z,100017.53
2023-02-13T19:29:58.004Z,100014.16
2023-02-13T19:32:01.580Z,100017.69
2023-02-13T19:34:06.873Z,100010.88
2023-02-13T19:36:12.693Z,100016.13
2023-02-13T19:38:15.875Z,100011.03
2023-02-13T19:40:19.191Z,100013.69
2023-02-13T19:42:22.386Z,100013.75
2023-02-13T19:44:26.852Z,100015.38
2023-02-13T19:46:31.660Z,100017.13
2023-02-13T19:48:35.699Z,100016.34
2023-02-13T19:50:39.061Z,100008.69
2023-02-13T19:52:42.183Z,100012.19
2023-02-13T19:54:45.223Z,100005.31
2023-02-13T19:56:48.618Z,100017.34
2023-02-13T19:58:51.774Z,100019.13
2023-02-13T20:00:57.530Z,100010.56
2023-02-13T20:03:03.623Z,100016.66
2023-02-13T20:05:08.750Z,100014.97
2023-02-13T20:07:11.965Z,100013.34
2023-02-13T20:09:15.680Z,100011.63
2023-02-13T20:11:20.374Z,100011.56
2023-02-13T20:13:23.832Z,100013.31
2023-02-13T20:15:27.610Z,100016.81
2023-02-13T20:17:32.233Z,100010.88
2023-02-13T20:19:38.524Z,100009.97
2023-02-13T20:21:42.443Z,100010.91
2023-02-13T20:23:49.605Z,100013.50
2023-02-13T20:25:52.733Z,100016.94
2023-02-13T20:27:55.924Z,100023.81
2023-02-13T20:30:06.618Z,100012.59
2023-02-13T20:32:10.919Z,100026.44
2023-02-13T20:34:15.533Z,100019.56
2023-02-13T20:36:20.555Z,100021.38
2023-02-13T20:38:23.572Z,100016.28
2023-02-13T20:40:27.120Z,100016.28
2023-02-13T20:42:30.220Z,100010.31
2023-02-13T20:44:33.390Z,100006.88
2023-02-13T20:46:38.323Z,100006.88
2023-02-13T20:48:42.009Z,100011.19
2023-02-13T20:50:46.546Z,100021.47
2023-02-13T20:52:49.686Z,100007.69
2023-02-13T20:54:53.693Z,100006.88
2023-02-13T20:56:56.836Z,100010.34
2023-02-13T20:59:02.543Z,100001.72
2023-02-13T21:01:12.535Z,99997.44
2023-02-13T21:03:17.045Z,99998.31
2023-02-13T21:05:20.223Z,99996.59
2023-02-13T21:07:24.892Z,99997.47
2023-02-13T21:09:28.300Z,99997.47
2023-02-13T21:11:34.065Z,99993.09
2023-02-13T21:13:39.218Z,99994.75
2023-02-13T21:15:44.777Z,99990.56
2023-02-13T21:17:47.845Z,99987.13
2023-02-13T21:19:51.054Z,99993.19
2023-02-13T21:21:54.178Z,99994.94
2023-02-13T21:24:00.201Z,99989.81
2023-02-13T21:26:04.112Z,99987.22
2023-02-13T21:28:07.455Z,99986.41
2023-02-13T21:30:11.717Z,99993.31
2023-02-13T21:32:15.249Z,99993.28
2023-02-13T21:34:19.283Z,99992.44
2023-02-13T21:36:22.446Z,99995.94
2023-02-13T21:38:25.761Z,99989.09
2023-02-13T21:40:30.240Z,99989.06
2023-02-13T21:42:33.359Z,99988.22
2023-02-13T21:44:36.610Z,99987.34
2023-02-13T21:46:39.811Z,99986.44
2023-02-13T21:48:43.688Z,99995.09
2023-02-13T21:50:46.817Z,99989.09
2023-02-13T21:52:49.884Z,99987.41
2023-02-13T21:54:53.071Z,99989.13
2023-02-13T21:56:57.576Z,99988.31
2023-02-13T21:59:00.977Z,99978.06
2023-02-13T22:01:20.416Z,99989.28
2023-02-13T22:03:27.154Z,99980.69
2023-02-13T22:05:30.247Z,99982.41
2023-02-13T22:07:53.407Z,99984.13
2023-02-13T22:09:56.517Z,99979.84
2023-02-13T22:12:01.035Z,99979.00
2023-02-13T22:14:05.658Z,99981.59
2023-02-13T22:16:10.106Z,99971.31
2023-02-13T22:18:13.234Z,99981.63
2023-02-13T22:20:16.540Z,99976.50
2023-02-13T22:22:20.112Z,99978.19
2023-02-13T22:24:23.341Z,99973.03
2023-02-13T22:26:28.229Z,99974.78
2023-02-13T22:28:32.978Z,99979.06
2023-02-13T22:30:37.744Z,99986.81
2023-02-13T22:32:41.056Z,99990.28
2023-02-13T22:34:44.286Z,99985.97
2023-02-13T22:36:47.346Z,99985.16
2023-02-13T22:38:51.480Z,99984.34
2023-02-13T22:40:54.610Z,99980.88
2023-02-13T22:42:57.707Z,99988.63
2023-02-13T22:45:02.161Z,99986.97
2023-02-13T22:47:07.292Z,99986.13
2023-02-13T22:49:10.467Z,99985.25
2023-02-13T22:51:15.856Z,99992.09
2023-02-13T22:53:18.972Z,99985.19
2023-02-13T22:55:22.042Z,99985.16
2023-02-13T22:57:25.283Z,99986.03
2023-02-13T22:59:28.461Z,99989.53
2023-02-13T23:01:32.884Z,99986.03
2023-02-13T23:03:36.058Z,99990.34
2023-02-13T23:05:40.723Z,99988.69
2023-02-13T23:07:43.985Z,99995.53
2023-02-13T23:09:47.468Z,99986.16
2023-02-13T23:12:07.938Z,99981.88
2023-02-13T23:14:11.412Z,99982.72
2023-02-13T23:16:15.245Z,99976.72
2023-02-13T23:18:19.002Z,99971.56
2023-02-13T23:20:22.903Z,99975.84
2023-02-13T23:22:26.040Z,99980.97
2023-02-13T23:24:30.241Z,99980.97
2023-02-13T23:26:33.242Z,99971.50
2023-02-13T23:28:36.894Z,99978.31
2023-02-13T23:30:40.938Z,99976.59
2023-02-13T23:32:44.249Z,99974.84
2023-02-13T23:34:48.692Z,99960.25
2023-02-13T23:36:51.922Z,99970.56
2023-02-13T23:38:55.041Z,99962.84
2023-02-13T23:40:58.448Z,99957.78
2023-02-13T23:43:01.752Z,99965.53
2023-02-13T23:45:04.979Z,99966.38
2023-02-13T23:47:08.076Z,99961.25
2023-02-13T23:49:11.256Z,99963.03
2023-02-13T23:51:15.938Z,99964.72
2023-02-13T23:53:18.976Z,99963.00
2023-02-13T23:55:22.146Z,99968.13
2023-02-13T23:57:25.555Z,99959.53
2023-02-13T23:59:28.799Z,99952.72
